createdAt,value
2023-01-27T00:00:07.670Z,0.87
2023-01-27T00:01:39.634Z,0.87
2023-01-27T00:03:12.320Z,0.86
2023-01-27T00:04:44.276Z,0.87
2023-01-27T00:07:50.152Z,0.87
2023-01-27T00:09:22.074Z,0.87
2023-01-27T00:11:17.728Z,0.87
2023-01-27T00:13:08.165Z,0.88
2023-01-27T00:14:40.023Z,0.89
2023-01-27T00:16:11.890Z,0.92
2023-01-27T00:17:43.900Z,0.91
2023-01-27T00:19:20.178Z,0.90
2023-01-27T00:21:10.914Z,0.89
2023-01-27T00:23:01.469Z,0.90
2023-01-27T00:24:36.406Z,0.90
2023-01-27T00:26:09.219Z,0.90
2023-01-27T00:27:41.039Z,0.92
2023-01-27T00:29:12.891Z,0.93
2023-01-27T00:30:44.897Z,0.94
2023-01-27T00:32:35.002Z,0.91
2023-01-27T00:34:09.756Z,0.89
2023-01-27T00:35:41.792Z,0.91
2023-01-27T00:37:13.631Z,0.92
2023-01-27T00:38:45.523Z,0.94
2023-01-27T00:40:17.512Z,0.95
2023-01-27T00:41:49.375Z,0.96
2023-01-27T00:43:21.200Z,0.96
2023-01-27T00:45:11.537Z,0.94
2023-01-27T00:46:43.419Z,0.92
2023-01-27T00:48:15.280Z,0.89
2023-01-27T00:49:47.333Z,0.89
2023-01-27T00:53:02.739Z,0.86
2023-01-27T00:54:37.280Z,0.87
2023-01-27T00:56:09.308Z,0.90
2023-01-27T00:57:41.087Z,0.91
2023-01-27T00:59:12.966Z,0.93
2023-01-27T01:00:44.967Z,0.92
2023-01-27T01:02:16.992Z,0.90
2023-01-27T01:03:49.255Z,0.89
2023-01-27T01:05:21.130Z,0.88
2023-01-27T01:06:53.000Z,0.89
2023-01-27T01:08:25.129Z,0.89
2023-01-27T01:09:57.010Z,0.92
2023-01-27T01:11:29.073Z,0.95
2023-01-27T01:13:00.973Z,0.95
2023-01-27T01:14:32.936Z,0.97
2023-01-27T01:16:06.001Z,0.97
2023-01-27T01:17:37.974Z,0.94
2023-01-27T01:19:09.804Z,0.93
2023-01-27T01:20:44.795Z,0.93
2023-01-27T01:22:16.674Z,0.92
2023-01-27T01:23:48.741Z,0.92
2023-01-27T01:25:20.788Z,0.90
2023-01-27T01:26:52.699Z,0.92
2023-01-27T01:28:24.764Z,0.94
2023-01-27T01:29:56.535Z,0.94
2023-01-27T01:31:28.376Z,0.95
2023-01-27T01:33:00.270Z,0.95
2023-01-27T01:34:32.106Z,0.97
2023-01-27T01:36:07.205Z,0.97
2023-01-27T01:37:38.989Z,0.98
2023-01-27T01:39:10.828Z,0.99
2023-01-27T01:40:43.216Z,0.99
2023-01-27T01:42:15.070Z,1.03
2023-01-27T01:43:47.065Z,1.00
2023-01-27T01:45:34.137Z,0.99
2023-01-27T01:47:05.938Z,0.97
2023-01-27T01:48:58.052Z,0.99
2023-01-27T01:50:30.373Z,1.01
2023-01-27T01:52:07.938Z,1.00
2023-01-27T01:53:44.648Z,1.01
2023-01-27T01:55:16.750Z,1.03
2023-01-27T01:56:50.672Z,1.01
2023-01-27T01:58:22.604Z,1.00
2023-01-27T01:59:54.955Z,0.98
2023-01-27T02:01:27.955Z,0.96
2023-01-27T02:02:59.836Z,0.94
2023-01-27T02:04:36.107Z,0.94
2023-01-27T02:06:07.898Z,0.92
2023-01-27T02:07:58.622Z,0.94
2023-01-27T02:09:30.858Z,0.94
2023-01-27T02:11:02.762Z,0.95
2023-01-27T02:12:34.595Z,0.97
2023-01-27T02:14:06.409Z,0.99
2023-01-27T02:15:38.460Z,1.03
2023-01-27T02:17:10.669Z,1.01
2023-01-27T02:18:42.861Z,1.01
2023-01-27T02:20:20.486Z,1.00
2023-01-27T02:21:52.365Z,1.00
2023-01-27T02:23:29.992Z,0.97
2023-01-27T02:25:04.087Z,0.97
2023-01-27T02:26:37.004Z,0.97
2023-01-27T02:28:09.049Z,0.95
2023-01-27T02:29:40.873Z,0.94
2023-01-27T02:31:12.878Z,0.92
2023-01-27T02:32:44.767Z,0.94
2023-01-27T02:34:17.545Z,0.93
2023-01-27T02:35:59.045Z,0.94
2023-01-27T02:37:30.894Z,0.92
2023-01-27T02:39:03.298Z,0.92
2023-01-27T02:40:35.145Z,0.90
2023-01-27T02:42:06.969Z,0.90
2023-01-27T02:45:14.369Z,0.92
2023-01-27T02:46:46.620Z,0.92
2023-01-27T02:48:18.532Z,0.92
2023-01-27T02:49:50.353Z,0.93
2023-01-27T02:51:22.345Z,0.93
2023-01-27T02:52:54.284Z,0.94
2023-01-27T02:54:26.094Z,0.95
2023-01-27T02:55:57.921Z,0.97
2023-01-27T02:57:29.760Z,0.98
2023-01-27T02:59:01.594Z,0.97
2023-01-27T03:00:33.484Z,0.97
2023-01-27T03:02:05.431Z,0.96
2023-01-27T03:03:44.431Z,0.96
2023-01-27T03:05:16.704Z,0.94
2023-01-27T03:06:48.835Z,0.93
2023-01-27T03:08:20.933Z,0.94
2023-01-27T03:09:52.850Z,0.95
2023-01-27T03:11:43.335Z,0.96
2023-01-27T03:13:15.234Z,0.97
2023-01-27T03:15:09.277Z,0.97
2023-01-27T03:16:59.621Z,1.00
2023-01-27T03:18:35.059Z,1.01
2023-01-27T03:20:07.097Z,1.04
2023-01-27T03:21:38.997Z,1.04
2023-01-27T03:23:11.104Z,1.03
2023-01-27T03:24:42.992Z,1.01
2023-01-27T03:26:14.999Z,0.99
2023-01-27T03:27:46.928Z,1.00
2023-01-27T03:29:37.264Z,1.01
2023-01-27T03:31:10.008Z,1.04
2023-01-27T03:32:54.766Z,1.05
2023-01-27T03:34:26.791Z,1.03
2023-01-27T03:36:17.561Z,1.03
2023-01-27T03:38:07.893Z,0.99
2023-01-27T03:39:58.135Z,0.95
2023-01-27T03:41:48.972Z,0.92
2023-01-27T03:43:39.489Z,0.92
2023-01-27T03:45:29.689Z,0.91
2023-01-27T03:47:01.734Z,0.92
2023-01-27T03:48:33.738Z,0.91
2023-01-27T03:50:11.498Z,0.92
2023-01-27T03:51:43.358Z,0.92
2023-01-27T03:53:15.280Z,0.91
2023-01-27T03:54:47.134Z,0.89
2023-01-27T03:56:19.875Z,0.89
2023-01-27T03:57:51.684Z,0.91
2023-01-27T03:59:23.473Z,0.93
2023-01-27T04:00:59.398Z,0.95
2023-01-27T04:02:52.564Z,0.97
2023-01-27T04:04:43.013Z,0.97
2023-01-27T04:06:37.256Z,0.97
2023-01-27T04:08:09.071Z,0.96
2023-01-27T04:09:41.169Z,0.95
2023-01-27T04:11:31.983Z,0.95
2023-01-27T04:13:06.108Z,0.94
2023-01-27T04:14:38.927Z,0.95
2023-01-27T04:16:10.812Z,0.93
2023-01-27T04:17:45.632Z,0.92
2023-01-27T04:19:17.820Z,0.93
2023-01-27T04:20:49.764Z,0.94
2023-01-27T04:22:21.680Z,0.96
2023-01-27T04:23:54.179Z,0.98
2023-01-27T04:25:26.134Z,1.00
2023-01-27T04:26:59.023Z,1.01
2023-01-27T04:28:43.891Z,1.04
2023-01-27T04:30:16.776Z,1.04
2023-01-27T04:31:48.629Z,1.06
2023-01-27T04:33:20.515Z,1.06
2023-01-27T04:34:52.293Z,1.06
2023-01-27T04:36:24.178Z,1.06
2023-01-27T04:37:55.966Z,1.07
2023-01-27T04:39:27.878Z,1.07
2023-01-27T04:40:59.696Z,1.08
2023-01-27T04:42:31.671Z,1.10
2023-01-27T04:44:04.164Z,1.08
2023-01-27T04:45:36.009Z,1.09
2023-01-27T04:47:07.836Z,1.08
2023-01-27T04:48:39.705Z,1.09
2023-01-27T04:50:11.771Z,1.09
2023-01-27T04:51:46.176Z,1.12
2023-01-27T04:53:18.147Z,1.12
2023-01-27T04:54:49.970Z,1.14
2023-01-27T04:56:22.895Z,1.14
2023-01-27T04:57:54.841Z,1.16
2023-01-27T04:59:26.876Z,1.15
2023-01-27T05:00:58.752Z,1.14
2023-01-27T05:02:30.729Z,1.13
2023-01-27T05:04:02.904Z,1.14
2023-01-27T05:05:36.839Z,1.13
2023-01-27T05:07:09.151Z,1.14
2023-01-27T05:08:41.033Z,1.12
2023-01-27T05:10:12.977Z,1.12
2023-01-27T05:11:44.938Z,1.09
2023-01-27T05:13:16.835Z,1.08
2023-01-27T05:14:48.655Z,1.07
2023-01-27T05:16:22.052Z,1.07
2023-01-27T05:17:53.902Z,1.05
2023-01-27T05:19:27.213Z,1.05
2023-01-27T05:22:32.711Z,1.03
2023-01-27T05:24:04.705Z,1.01
2023-01-27T05:25:36.515Z,1.00
2023-01-27T05:27:08.339Z,1.01
2023-01-27T05:28:41.603Z,1.03
2023-01-27T05:30:13.589Z,1.05
2023-01-27T05:31:45.567Z,1.04
2023-01-27T05:33:17.435Z,1.04
2023-01-27T05:34:49.230Z,1.01
2023-01-27T05:36:22.182Z,1.01
2023-01-27T05:37:53.938Z,1.02
2023-01-27T05:39:25.805Z,1.03
2023-01-27T05:41:02.391Z,1.03
2023-01-27T05:42:34.309Z,1.03
2023-01-27T05:44:06.726Z,1.04
2023-01-27T05:45:41.330Z,1.04
2023-01-27T05:47:13.151Z,1.04
2023-01-27T05:48:49.476Z,1.04
2023-01-27T05:50:21.510Z,1.02
2023-01-27T05:51:53.346Z,1.02
2023-01-27T05:53:25.237Z,1.04
2023-01-27T05:54:57.181Z,1.04
2023-01-27T05:58:08.099Z,1.05
2023-01-27T05:59:39.904Z,1.05
2023-01-27T06:01:13.540Z,1.04
2023-01-27T06:02:45.627Z,1.05
2023-01-27T06:04:17.516Z,1.07
2023-01-27T06:05:50.094Z,1.09
2023-01-27T06:07:21.998Z,1.10
2023-01-27T06:08:53.884Z,1.14
2023-01-27T06:10:25.710Z,1.16
2023-01-27T06:11:57.717Z,1.16
2023-01-27T06:13:29.776Z,1.16
2023-01-27T06:15:01.683Z,1.15
2023-01-27T06:16:33.517Z,1.17
2023-01-27T06:18:05.588Z,1.18
2023-01-27T06:19:37.415Z,1.17
2023-01-27T06:21:09.980Z,1.17
2023-01-27T06:22:41.788Z,1.14
2023-01-27T06:24:13.871Z,1.14
2023-01-27T06:25:46.758Z,1.13
2023-01-27T06:27:18.580Z,1.11
2023-01-27T06:28:50.412Z,1.11
2023-01-27T06:30:22.961Z,1.05
2023-01-27T06:31:54.897Z,1.07
2023-01-27T06:33:26.769Z,1.08
2023-01-27T06:34:58.809Z,1.09
2023-01-27T06:36:30.627Z,1.10
2023-01-27T06:38:03.377Z,1.10
2023-01-27T06:39:35.324Z,1.13
2023-01-27T06:41:07.348Z,1.14
2023-01-27T06:42:44.069Z,1.16
2023-01-27T06:44:16.014Z,1.17
2023-01-27T06:45:51.185Z,1.18
2023-01-27T06:47:23.235Z,1.20
2023-01-27T06:48:55.151Z,1.20
2023-01-27T06:50:28.059Z,1.19
2023-01-27T06:51:59.941Z,1.20
2023-01-27T06:53:32.902Z,1.21
2023-01-27T06:55:05.337Z,1.22
2023-01-27T06:56:37.470Z,1.24
2023-01-27T06:58:09.965Z,1.25
2023-01-27T06:59:42.242Z,1.23
2023-01-27T07:01:14.173Z,1.24
2023-01-27T07:02:46.178Z,1.23
2023-01-27T07:04:18.132Z,1.22
2023-01-27T07:05:50.231Z,1.24
2023-01-27T07:07:22.210Z,1.23
2023-01-27T07:08:55.572Z,1.23
2023-01-27T07:10:30.000Z,1.26
2023-01-27T07:12:01.973Z,1.27
2023-01-27T07:13:33.915Z,1.27
2023-01-27T07:15:06.410Z,1.28
2023-01-27T07:16:38.306Z,1.29
2023-01-27T07:18:10.721Z,1.30
2023-01-27T07:19:42.690Z,1.31
2023-01-27T07:21:14.634Z,1.33
2023-01-27T07:22:46.635Z,1.36
2023-01-27T07:24:19.613Z,1.35
2023-01-27T07:25:51.585Z,1.34
2023-01-27T07:27:24.094Z,1.33
2023-01-27T07:28:56.584Z,1.32
2023-01-27T07:30:28.722Z,1.30
2023-01-27T07:32:00.694Z,1.28
2023-01-27T07:33:32.657Z,1.27
2023-01-27T07:35:04.749Z,1.26
2023-01-27T07:36:36.634Z,1.25
2023-01-27T07:38:08.801Z,1.26
2023-01-27T07:39:40.861Z,1.26
2023-01-27T07:41:12.941Z,1.26
2023-01-27T07:42:45.107Z,1.25
2023-01-27T07:44:17.333Z,1.25
2023-01-27T07:45:49.279Z,1.27
2023-01-27T07:47:21.232Z,1.28
2023-01-27T07:48:53.112Z,1.31
2023-01-27T07:50:24.990Z,1.31
2023-01-27T07:51:56.889Z,1.32
2023-01-27T07:53:28.921Z,1.32
2023-01-27T07:55:00.755Z,1.32
2023-01-27T07:56:32.672Z,1.33
2023-01-27T07:58:04.593Z,1.33
2023-01-27T07:59:37.088Z,1.34
2023-01-27T08:01:10.196Z,1.34
2023-01-27T08:02:42.088Z,1.35
2023-01-27T08:04:13.954Z,1.34
2023-01-27T08:05:45.857Z,1.34
2023-01-27T08:07:17.949Z,1.35
2023-01-27T08:08:49.937Z,1.36
2023-01-27T08:10:21.879Z,1.37
2023-01-27T08:11:53.722Z,1.38
2023-01-27T08:13:25.640Z,1.39
2023-01-27T08:14:57.508Z,1.40
2023-01-27T08:16:29.409Z,1.42
2023-01-27T08:18:02.654Z,1.45
2023-01-27T08:19:34.569Z,1.47
2023-01-27T08:21:07.303Z,1.50
2023-01-27T08:22:39.197Z,1.50
2023-01-27T08:24:11.982Z,1.51
2023-01-27T08:25:48.853Z,1.52
2023-01-27T08:27:20.757Z,1.51
2023-01-27T08:28:52.600Z,1.51
2023-01-27T08:30:25.028Z,1.51
2023-01-27T08:31:56.945Z,1.49
2023-01-27T08:33:28.973Z,1.50
2023-01-27T08:35:00.826Z,1.50
2023-01-27T08:36:32.850Z,1.50
2023-01-27T08:38:04.845Z,1.51
2023-01-27T08:39:36.757Z,1.52
2023-01-27T08:41:10.099Z,1.52
2023-01-27T08:42:41.988Z,1.52
2023-01-27T08:44:13.983Z,1.51
2023-01-27T08:45:47.177Z,1.53
2023-01-27T08:47:19.232Z,1.52
2023-01-27T08:48:52.082Z,1.53
2023-01-27T08:50:23.931Z,1.53
2023-01-27T08:51:55.778Z,1.53
2023-01-27T08:53:27.916Z,1.56
2023-01-27T08:55:00.122Z,1.57
2023-01-27T08:56:31.969Z,1.58
2023-01-27T08:58:03.772Z,1.58
2023-01-27T08:59:35.605Z,1.56
2023-01-27T09:01:07.876Z,1.57
2023-01-27T09:02:40.064Z,1.55
2023-01-27T09:04:12.005Z,1.56
2023-01-27T09:05:44.012Z,1.55
2023-01-27T09:07:15.882Z,1.55
2023-01-27T09:09:10.720Z,1.55
2023-01-27T09:10:43.226Z,1.58
2023-01-27T09:12:15.141Z,1.59
2023-01-27T09:13:50.203Z,1.60
2023-01-27T09:15:22.090Z,1.64
2023-01-27T09:16:53.919Z,1.65
2023-01-27T09:18:25.751Z,1.67
2023-01-27T09:19:57.609Z,1.69
2023-01-27T09:21:29.981Z,1.71
2023-01-27T09:23:02.148Z,1.72
2023-01-27T09:24:34.277Z,1.73
2023-01-27T09:26:06.226Z,1.74
2023-01-27T09:27:39.773Z,1.75
2023-01-27T09:29:12.122Z,1.76
2023-01-27T09:30:47.259Z,1.77
2023-01-27T09:32:19.166Z,1.75
2023-01-27T09:33:50.996Z,1.79
2023-01-27T09:35:22.808Z,1.80
2023-01-27T09:36:59.023Z,1.82
2023-01-27T09:38:32.615Z,1.85
2023-01-27T09:40:04.816Z,1.88
2023-01-27T09:41:40.903Z,1.88
2023-01-27T09:43:15.956Z,1.89
2023-01-27T09:45:20.252Z,1.88
2023-01-27T09:47:10.561Z,1.90
2023-01-27T09:48:56.153Z,1.88
2023-01-27T09:50:34.625Z,1.90
2023-01-27T09:52:16.890Z,1.92
2023-01-27T09:53:54.886Z,1.96
2023-01-27T09:55:41.960Z,2.00
2023-01-27T09:57:19.040Z,2.02
2023-01-27T09:59:09.754Z,2.02
2023-01-27T10:00:54.807Z,2.03
2023-01-27T10:02:32.748Z,2.01
2023-01-27T10:04:16.767Z,2.03
2023-01-27T10:05:48.728Z,2.02
2023-01-27T10:07:39.427Z,1.99
2023-01-27T10:09:11.466Z,2.00
2023-01-27T10:10:46.728Z,2.00
2023-01-27T10:12:18.569Z,2.04
2023-01-27T10:15:48.981Z,2.11
2023-01-27T10:17:24.562Z,2.10
2023-01-27T10:19:02.141Z,2.10
2023-01-27T10:20:33.943Z,2.10
2023-01-27T10:22:25.383Z,2.12
2023-01-27T10:23:57.364Z,2.16
2023-01-27T10:25:48.095Z,2.17
2023-01-27T10:27:22.160Z,2.17
2023-01-27T10:28:57.403Z,2.17
2023-01-27T10:30:32.245Z,2.20
2023-01-27T10:32:24.629Z,2.20
2023-01-27T10:33:58.677Z,2.20
2023-01-27T10:35:32.635Z,2.18
2023-01-27T10:37:07.285Z,2.20
2023-01-27T10:39:02.114Z,2.23
2023-01-27T10:40:36.772Z,2.24
2023-01-27T10:42:11.459Z,2.26
2023-01-27T10:43:50.167Z,2.25
2023-01-27T10:45:25.395Z,2.26
2023-01-27T10:46:57.267Z,2.29
2023-01-27T10:48:32.190Z,2.30
2023-01-27T10:50:11.880Z,2.30
2023-01-27T10:51:48.183Z,2.30
2023-01-27T10:53:26.391Z,2.26
2023-01-27T10:55:01.690Z,2.31
2023-01-27T10:56:41.891Z,2.33
2023-01-27T10:58:21.777Z,2.26
2023-01-27T11:00:37.915Z,2.27
2023-01-27T11:02:07.010Z,2.25
2023-01-27T11:03:55.328Z,2.24
2023-01-27T11:05:49.819Z,2.21
2023-01-27T11:07:22.159Z,2.23
2023-01-27T11:08:59.842Z,2.23
2023-01-27T11:10:34.014Z,2.26
2023-01-27T11:12:06.796Z,2.29
2023-01-27T11:13:38.664Z,2.21
2023-01-27T11:15:29.052Z,2.18
2023-01-27T11:17:03.717Z,2.18
2023-01-27T11:18:36.668Z,2.16
2023-01-27T11:20:23.823Z,2.15
2023-01-27T11:22:07.140Z,2.07
2023-01-27T11:23:40.918Z,2.10
2023-01-27T11:25:24.368Z,2.12
2023-01-27T11:26:58.196Z,2.18
2023-01-27T11:28:48.359Z,2.21
2023-01-27T11:30:25.133Z,2.25
2023-01-27T11:32:06.446Z,2.29
2023-01-27T11:33:44.561Z,2.33
2023-01-27T11:35:16.760Z,2.38
2023-01-27T11:36:50.190Z,2.41
2023-01-27T11:38:22.651Z,2.41
2023-01-27T11:39:55.668Z,2.42
2023-01-27T11:41:32.324Z,2.43
2023-01-27T11:43:05.039Z,2.43
2023-01-27T11:44:36.922Z,2.47
2023-01-27T11:46:11.420Z,2.47
2023-01-27T11:47:43.405Z,2.42
2023-01-27T11:49:26.377Z,2.44
2023-01-27T11:50:58.181Z,2.46
2023-01-27T11:52:30.192Z,2.45
2023-01-27T11:54:12.359Z,2.40
2023-01-27T11:55:46.655Z,2.40
2023-01-27T11:57:22.650Z,2.41
2023-01-27T11:58:57.532Z,2.41
2023-01-27T12:00:31.817Z,2.40
2023-01-27T12:02:09.291Z,2.38
2023-01-27T12:04:08.230Z,2.35
2023-01-27T12:05:44.175Z,2.29
2023-01-27T12:07:28.504Z,2.31
2023-01-27T12:09:00.324Z,2.34
2023-01-27T12:10:35.633Z,2.36
2023-01-27T12:12:27.861Z,2.30
2023-01-27T12:14:00.695Z,2.32
2023-01-27T12:15:33.167Z,2.35
2023-01-27T12:17:05.057Z,2.27
2023-01-27T12:18:37.187Z,2.18
2023-01-27T12:20:20.892Z,2.23
2023-01-27T12:21:54.009Z,2.26
2023-01-27T12:23:30.403Z,2.25
2023-01-27T12:25:03.836Z,2.27
2023-01-27T12:26:37.704Z,2.27
2023-01-27T12:28:15.112Z,2.31
2023-01-27T12:29:51.517Z,2.33
2023-01-27T12:31:25.130Z,2.30
2023-01-27T12:32:57.055Z,2.26
2023-01-27T12:34:31.556Z,2.23
2023-01-27T12:36:06.266Z,2.23
2023-01-27T12:37:38.281Z,2.20
2023-01-27T12:39:30.421Z,2.18
2023-01-27T12:42:36.684Z,2.21
2023-01-27T12:44:08.520Z,2.14
2023-01-27T12:45:41.161Z,2.12
2023-01-27T12:47:24.679Z,2.15
2023-01-27T12:49:08.388Z,2.12
2023-01-27T12:50:44.292Z,2.12
2023-01-27T12:52:18.799Z,2.16
2023-01-27T12:53:50.985Z,2.18
2023-01-27T12:55:29.929Z,2.12
2023-01-27T12:57:05.606Z,2.13
2023-01-27T12:58:37.612Z,2.13
2023-01-27T13:00:13.932Z,2.13
2023-01-27T13:01:57.242Z,2.15
2023-01-27T13:03:29.297Z,2.12
2023-01-27T13:05:02.543Z,2.15
2023-01-27T13:06:36.837Z,2.17
2023-01-27T13:08:13.499Z,2.18
2023-01-27T13:10:02.181Z,2.21
2023-01-27T13:11:37.810Z,2.18
2023-01-27T13:13:15.224Z,2.15
2023-01-27T13:14:49.902Z,2.13
2023-01-27T13:16:28.546Z,2.13
2023-01-27T13:18:00.743Z,2.15
2023-01-27T13:19:42.156Z,2.10
2023-01-27T13:21:15.524Z,2.04
2023-01-27T13:22:48.423Z,2.06
2023-01-27T13:24:33.140Z,2.02
2023-01-27T13:27:38.734Z,1.99
2023-01-27T13:29:10.666Z,2.01
2023-01-27T13:30:42.670Z,2.00
2023-01-27T13:32:17.275Z,1.95
2023-01-27T13:33:51.214Z,1.97
2023-01-27T13:35:25.396Z,1.98
2023-01-27T13:37:01.497Z,2.01
2023-01-27T13:38:39.067Z,2.00
2023-01-27T13:40:12.170Z,2.02
2023-01-27T13:41:50.272Z,2.03
2023-01-27T13:43:41.820Z,1.96
2023-01-27T13:45:16.828Z,1.92
2023-01-27T13:46:48.961Z,1.86
2023-01-27T13:48:30.373Z,1.89
2023-01-27T13:50:08.185Z,1.87
2023-01-27T13:51:40.126Z,1.82
2023-01-27T13:53:12.730Z,1.81
2023-01-27T13:54:44.711Z,1.81
2023-01-27T13:56:26.348Z,1.79
2023-01-27T13:58:01.456Z,1.80
2023-01-27T13:59:40.478Z,1.78
2023-01-27T14:01:12.374Z,1.76
2023-01-27T14:03:07.794Z,1.76
2023-01-27T14:04:39.854Z,1.74
2023-01-27T14:06:14.969Z,1.75
2023-01-27T14:07:54.598Z,1.61
2023-01-27T14:09:32.749Z,1.65
2023-01-27T14:11:09.997Z,1.66
2023-01-27T14:13:04.052Z,1.67
2023-01-27T14:14:56.051Z,1.69
2023-01-27T14:16:47.361Z,1.66
2023-01-27T14:18:19.283Z,1.70
2023-01-27T14:20:27.262Z,1.73
2023-01-27T14:22:14.570Z,1.73
2023-01-27T14:23:46.503Z,1.73
2023-01-27T14:25:26.167Z,1.73
2023-01-27T14:27:02.418Z,1.75
2023-01-27T14:28:37.677Z,1.75
2023-01-27T14:30:13.059Z,1.76
2023-01-27T14:31:51.804Z,1.74
2023-01-27T14:33:43.060Z,1.73
2023-01-27T14:35:18.987Z,1.70
2023-01-27T14:37:03.300Z,1.70
2023-01-27T14:38:39.297Z,1.69
2023-01-27T14:40:14.436Z,1.73
2023-01-27T14:41:47.913Z,1.72
2023-01-27T14:43:19.845Z,1.71
2023-01-27T14:45:02.694Z,1.72
2023-01-27T14:46:43.798Z,1.76
2023-01-27T14:48:34.052Z,1.75
2023-01-27T14:50:24.356Z,1.73
2023-01-27T14:51:58.345Z,1.72
2023-01-27T14:53:39.377Z,1.66
2023-01-27T14:57:05.710Z,1.65
2023-01-27T14:58:37.950Z,1.65
2023-01-27T15:00:18.804Z,1.64
2023-01-27T15:01:58.651Z,1.68
2023-01-27T15:03:38.010Z,1.70
2023-01-27T15:05:19.000Z,1.67
2023-01-27T15:07:20.244Z,1.69
2023-01-27T15:08:52.063Z,1.70
2023-01-27T15:10:27.981Z,1.66
2023-01-27T15:11:59.966Z,1.64
2023-01-27T15:13:50.115Z,1.66
2023-01-27T15:15:27.905Z,1.69
2023-01-27T15:17:15.033Z,1.65
2023-01-27T15:18:52.918Z,1.64
2023-01-27T15:20:33.974Z,1.63
2023-01-27T15:22:05.951Z,1.63
2023-01-27T15:23:40.840Z,1.65
2023-01-27T15:25:12.808Z,1.68
2023-01-27T15:26:45.105Z,1.69
2023-01-27T15:28:17.694Z,1.70
2023-01-27T15:29:49.443Z,1.68
2023-01-27T15:31:23.268Z,1.71
2023-01-27T15:32:55.430Z,1.69
2023-01-27T15:34:28.973Z,1.69
2023-01-27T15:36:33.083Z,1.69
2023-01-27T15:38:10.777Z,1.67
2023-01-27T15:40:04.379Z,1.68
2023-01-27T15:41:36.925Z,1.63
2023-01-27T15:43:12.626Z,1.65
2023-01-27T15:45:00.227Z,1.61
2023-01-27T15:46:32.917Z,1.52
2023-01-27T15:48:10.978Z,1.49
2023-01-27T15:49:47.543Z,1.46
2023-01-27T15:51:19.863Z,1.47
2023-01-27T15:52:51.708Z,1.46
2023-01-27T15:54:27.065Z,1.46
2023-01-27T15:55:59.143Z,1.43
2023-01-27T15:57:39.872Z,1.40
2023-01-27T15:59:15.376Z,1.41
2023-01-27T16:00:51.683Z,1.39
2023-01-27T16:02:27.723Z,1.35
2023-01-27T16:04:20.163Z,1.36
2023-01-27T16:05:52.597Z,1.37
2023-01-27T16:07:29.029Z,1.37
2023-01-27T16:09:01.840Z,1.38
2023-01-27T16:10:34.335Z,1.38
2023-01-27T16:12:06.475Z,1.33
2023-01-27T16:13:38.353Z,1.38
2023-01-27T16:15:16.229Z,1.39
2023-01-27T16:16:51.083Z,1.41
2023-01-27T16:18:24.422Z,1.40
2023-01-27T16:20:16.616Z,1.37
2023-01-27T16:21:54.385Z,1.41
2023-01-27T16:23:44.818Z,1.39
2023-01-27T16:25:23.209Z,1.41
2023-01-27T16:26:57.141Z,1.45
2023-01-27T16:28:29.568Z,1.44
2023-01-27T16:30:18.829Z,1.46
2023-01-27T16:31:51.333Z,1.46
2023-01-27T16:33:25.693Z,1.48
2023-01-27T16:35:00.969Z,1.48
2023-01-27T16:36:36.455Z,1.51
2023-01-27T16:38:14.293Z,1.50
2023-01-27T16:39:47.696Z,1.50
2023-01-27T16:41:24.707Z,1.49
2023-01-27T16:42:57.941Z,1.50
2023-01-27T16:44:39.718Z,1.50
2023-01-27T16:46:25.683Z,1.52
2023-01-27T16:48:15.638Z,1.52
2023-01-27T16:49:49.146Z,1.53
2023-01-27T16:51:21.637Z,1.54
2023-01-27T16:52:53.543Z,1.56
2023-01-27T16:54:27.126Z,1.54
2023-01-27T16:55:59.542Z,1.55
2023-01-27T16:57:35.415Z,1.56
2023-01-27T16:59:08.329Z,1.56
2023-01-27T17:00:40.377Z,1.55
2023-01-27T17:02:18.342Z,1.56
2023-01-27T17:03:50.387Z,1.57
2023-01-27T17:05:22.580Z,1.53
2023-01-27T17:06:57.611Z,1.56
2023-01-27T17:08:35.970Z,1.56
2023-01-27T17:10:18.907Z,1.57
2023-01-27T17:11:56.294Z,1.59
2023-01-27T17:13:29.446Z,1.60
2023-01-27T17:15:02.664Z,1.61
2023-01-27T17:16:42.012Z,1.60
2023-01-27T17:18:14.722Z,1.62
2023-01-27T17:19:50.362Z,1.60
2023-01-27T17:21:32.435Z,1.60
2023-01-27T17:23:05.812Z,1.60
2023-01-27T17:24:38.907Z,1.61
2023-01-27T17:26:17.034Z,1.60
2023-01-27T17:27:48.929Z,1.58
2023-01-27T17:29:21.891Z,1.60
2023-01-27T17:31:00.208Z,1.57
2023-01-27T17:32:33.232Z,1.55
2023-01-27T17:35:44.556Z,1.56
2023-01-27T17:37:23.101Z,1.56
2023-01-27T17:38:55.464Z,1.51
2023-01-27T18:04:50.283Z,1.38
2023-01-27T18:06:22.790Z,1.37
2023-01-27T18:07:55.046Z,1.38
2023-01-27T18:09:27.439Z,1.39
2023-01-27T18:11:17.511Z,1.39
2023-01-27T18:12:49.441Z,1.39
2023-01-27T18:14:21.762Z,1.39
2023-01-27T18:16:00.724Z,1.38
2023-01-27T18:17:32.693Z,1.34
2023-01-27T18:19:08.904Z,1.37
2023-01-27T18:20:40.725Z,1.32
2023-01-27T18:22:12.768Z,1.33
2023-01-27T18:23:46.860Z,1.31
2023-01-27T18:25:18.811Z,1.29
2023-01-27T18:26:50.774Z,1.31
2023-01-27T18:28:22.940Z,1.29
2023-01-27T18:29:56.504Z,1.32
2023-01-27T18:31:30.053Z,1.32
2023-01-27T18:34:44.815Z,1.31
2023-01-27T18:36:20.924Z,1.33
2023-01-27T18:38:00.264Z,1.31
2023-01-27T18:39:36.462Z,1.31
2023-01-27T18:41:12.032Z,1.28
2023-01-27T18:42:44.905Z,1.28
2023-01-27T18:44:19.272Z,1.29
2023-01-27T18:45:51.170Z,1.30
2023-01-27T18:47:35.009Z,1.32
2023-01-27T18:49:10.725Z,1.33
2023-01-27T18:50:46.419Z,1.34
2023-01-27T18:52:18.353Z,1.36
2023-01-27T18:53:50.375Z,1.38
2023-01-27T18:55:26.814Z,1.39
2023-01-27T18:56:58.683Z,1.40
2023-01-27T18:58:30.592Z,1.36
2023-01-27T19:00:02.494Z,1.38
2023-01-27T19:01:36.093Z,1.37
2023-01-27T19:03:11.372Z,1.36
2023-01-27T19:04:43.593Z,1.34
2023-01-27T19:06:16.935Z,1.34
2023-01-27T19:07:49.171Z,1.32
2023-01-27T19:09:20.971Z,1.30
2023-01-27T19:10:53.115Z,1.33
2023-01-27T19:12:24.916Z,1.34
2023-01-27T19:13:56.730Z,1.36
2023-01-27T19:15:29.388Z,1.36
2023-01-27T19:17:01.519Z,1.38
2023-01-27T19:18:35.078Z,1.37
2023-01-27T19:20:13.459Z,1.41
2023-01-27T19:21:45.871Z,1.42
2023-01-27T19:23:18.475Z,1.44
2023-01-27T19:24:50.791Z,1.46
2023-01-27T19:26:23.614Z,1.48
2023-01-27T19:27:56.354Z,1.49
2023-01-27T19:29:28.208Z,1.45
2023-01-27T19:31:00.544Z,1.48
2023-01-27T19:32:32.397Z,1.48
2023-01-27T19:34:04.431Z,1.46
2023-01-27T19:35:37.088Z,1.47
2023-01-27T19:37:18.910Z,1.49
2023-01-27T19:38:55.158Z,1.47
2023-01-27T19:40:28.676Z,1.49
2023-01-27T19:42:00.583Z,1.50
2023-01-27T19:43:32.573Z,1.51
2023-01-27T19:45:04.490Z,1.49
2023-01-27T19:46:36.448Z,1.50
2023-01-27T19:48:15.807Z,1.50
2023-01-27T19:49:47.669Z,1.51
2023-01-27T19:51:19.794Z,1.52
2023-01-27T19:52:51.741Z,1.55
2023-01-27T19:54:24.162Z,1.56
2023-01-27T19:55:58.138Z,1.54
2023-01-27T19:57:30.934Z,1.55
2023-01-27T19:59:02.886Z,1.56
2023-01-27T20:00:36.832Z,1.56
2023-01-27T20:02:10.390Z,1.55
2023-01-27T20:03:42.360Z,1.55
2023-01-27T20:05:14.825Z,1.56
2023-01-27T20:06:46.919Z,1.55
2023-01-27T20:08:19.700Z,1.56
2023-01-27T20:09:51.758Z,1.56
2023-01-27T20:11:31.217Z,1.57
2023-01-27T20:13:04.579Z,1.57
2023-01-27T20:14:36.579Z,1.58
2023-01-27T20:16:08.614Z,1.58
2023-01-27T20:17:40.490Z,1.56
2023-01-27T20:19:15.284Z,1.57
2023-01-27T20:20:47.510Z,1.58
2023-01-27T20:22:19.379Z,1.57
2023-01-27T20:23:51.321Z,1.59
2023-01-27T20:25:24.073Z,1.59
2023-01-27T20:26:56.756Z,1.59
2023-01-27T20:28:28.826Z,1.58
2023-01-27T20:30:00.681Z,1.58
2023-01-27T20:31:32.514Z,1.57
2023-01-27T20:33:04.638Z,1.57
2023-01-27T20:34:37.336Z,1.57
2023-01-27T20:36:10.074Z,1.56
2023-01-27T20:37:42.473Z,1.55
2023-01-27T20:39:14.440Z,1.53
2023-01-27T20:40:46.274Z,1.52
2023-01-27T20:43:58.606Z,1.50
2023-01-27T20:45:30.507Z,1.51
2023-01-27T20:47:02.302Z,1.49
2023-01-27T20:48:34.193Z,1.48
2023-01-27T20:50:07.032Z,1.47
2023-01-27T20:51:38.912Z,1.48
2023-01-27T20:53:10.775Z,1.48
2023-01-27T20:54:42.754Z,1.49
2023-01-27T20:56:16.294Z,1.47
2023-01-27T20:57:48.370Z,1.47
2023-01-27T20:59:20.299Z,1.45
2023-01-27T21:00:52.197Z,1.43
2023-01-27T21:02:24.107Z,1.41
2023-01-27T21:03:55.989Z,1.39
2023-01-27T21:05:27.988Z,1.38
2023-01-27T21:06:59.886Z,1.37
2023-01-27T21:08:31.893Z,1.37
2023-01-27T21:10:04.178Z,1.36
2023-01-27T21:11:36.314Z,1.36
2023-01-27T21:13:08.346Z,1.35
2023-01-27T21:14:40.214Z,1.35
2023-01-27T21:16:12.156Z,1.34
2023-01-27T21:17:44.069Z,1.34
2023-01-27T21:19:16.203Z,1.35
2023-01-27T21:20:48.856Z,1.37
2023-01-27T21:22:20.843Z,1.37
2023-01-27T21:23:53.389Z,1.37
2023-01-27T21:25:25.305Z,1.37
2023-01-27T21:26:57.623Z,1.38
2023-01-27T21:28:29.501Z,1.37
2023-01-27T21:30:01.504Z,1.37
2023-01-27T21:31:33.493Z,1.37
2023-01-27T21:33:05.459Z,1.37
2023-01-27T21:34:37.316Z,1.37
2023-01-27T21:36:10.818Z,1.36
2023-01-27T21:37:43.081Z,1.36
2023-01-27T21:39:15.044Z,1.35
2023-01-27T21:40:46.923Z,1.35
2023-01-27T21:42:18.827Z,1.36
2023-01-27T21:44:09.395Z,1.35
2023-01-27T21:45:41.343Z,1.37
2023-01-27T21:47:15.420Z,1.37
2023-01-27T21:48:47.693Z,1.37
2023-01-27T21:50:19.634Z,1.38